createdAt,value
2022-09-23T00:01:29.968Z,12.41
2022-09-23T00:04:00.143Z,12.52
2022-09-23T00:06:29.168Z,12.47
2022-09-23T00:14:30.335Z,12.44
2022-09-23T00:16:58.701Z,12.49
2022-09-23T00:19:27.123Z,12.39
2022-09-23T00:21:56.855Z,12.18
2022-09-23T00:24:25.185Z,12.19
2022-09-23T00:26:54.843Z,12.36
2022-09-23T00:29:23.615Z,12.06
2022-09-23T00:31:51.963Z,11.77
2022-09-23T00:34:20.217Z,11.95
2022-09-23T00:36:48.508Z,11.98
2022-09-23T00:39:16.908Z,11.98
2022-09-23T00:41:45.243Z,11.75
2022-09-23T00:44:47.039Z,12.03
2022-09-23T00:47:19.318Z,11.78
2022-09-23T00:52:36.146Z,11.96
2022-09-23T00:55:08.664Z,12.01
2022-09-23T00:57:38.368Z,11.79
2022-09-23T01:00:09.782Z,11.31
2022-09-23T01:02:38.946Z,11.39
2022-09-23T01:05:08.816Z,11.36
2022-09-23T01:07:37.204Z,11.52
2022-09-23T01:10:07.099Z,11.56
2022-09-23T01:12:59.548Z,11.44
2022-09-23T01:15:37.261Z,11.56
2022-09-23T01:18:10.929Z,11.29
2022-09-23T01:20:59.439Z,11.23
2022-09-23T01:23:59.946Z,11.34
2022-09-23T01:26:47.959Z,11.14
2022-09-23T01:29:48.902Z,10.93
2022-09-23T01:32:31.197Z,10.95
2022-09-23T01:35:07.307Z,10.95
2022-09-23T01:37:42.045Z,10.60
2022-09-23T01:40:19.328Z,10.69
2022-09-23T01:42:52.629Z,10.35
2022-09-23T01:45:24.040Z,9.98
2022-09-23T01:47:55.966Z,9.97
2022-09-23T01:50:45.916Z,9.85
2022-09-23T01:53:19.446Z,10.29
2022-09-23T01:55:51.626Z,10.48
2022-09-23T01:58:24.171Z,10.87
2022-09-23T02:00:56.910Z,10.73
2022-09-23T02:03:32.152Z,10.36
2022-09-23T02:06:03.337Z,10.33
2022-09-23T02:08:35.727Z,10.86
2022-09-23T02:11:07.824Z,10.38
2022-09-23T02:13:40.120Z,10.10
2022-09-23T02:16:12.192Z,10.33
2022-09-23T02:18:46.219Z,10.08
2022-09-23T02:21:16.049Z,10.55
2022-09-23T02:23:46.772Z,10.69
2022-09-23T02:26:20.443Z,10.52
2022-09-23T02:28:53.584Z,10.62
2022-09-23T02:31:29.096Z,10.73
2022-09-23T02:34:01.647Z,10.76
2022-09-23T02:36:33.828Z,10.64
2022-09-23T02:39:05.142Z,10.56
2022-09-23T02:41:37.541Z,10.12
2022-09-23T02:44:08.516Z,10.11
2022-09-23T02:46:37.896Z,10.36
2022-09-23T02:49:12.290Z,10.48
2022-09-23T02:51:41.201Z,10.07
2022-09-23T02:54:14.672Z,10.08
2022-09-23T02:56:43.336Z,10.25
2022-09-23T02:59:12.346Z,9.56
2022-09-23T03:01:47.790Z,9.54
2022-09-23T03:04:26.054Z,10.06
2022-09-23T03:07:00.751Z,10.22
2022-09-23T03:09:32.239Z,10.41
2022-09-23T03:12:07.180Z,10.40
2022-09-23T03:14:43.086Z,10.48
2022-09-23T03:17:14.484Z,10.34
2022-09-23T03:19:48.393Z,10.34
2022-09-23T03:22:18.619Z,10.04
2022-09-23T03:24:50.739Z,9.79
2022-09-23T03:27:23.630Z,9.99
2022-09-23T03:29:54.051Z,10.07
2022-09-23T03:32:26.820Z,10.13
2022-09-23T03:34:58.796Z,9.97
2022-09-23T03:37:31.293Z,10.11
2022-09-23T03:40:04.337Z,10.09
2022-09-23T03:42:33.762Z,9.61
2022-09-23T03:45:07.345Z,8.73
2022-09-23T03:47:36.371Z,8.98
2022-09-23T03:50:07.144Z,9.54
2022-09-23T03:52:35.536Z,9.40
2022-09-23T03:55:03.896Z,9.48
2022-09-23T03:57:32.355Z,9.49
2022-09-23T04:00:00.680Z,8.92
2022-09-23T04:02:29.126Z,8.90
2022-09-23T04:04:57.529Z,9.52
2022-09-23T04:07:27.168Z,9.43
2022-09-23T04:09:55.776Z,8.73
2022-09-23T04:12:24.086Z,8.79
2022-09-23T04:14:52.437Z,9.31
2022-09-23T04:17:20.767Z,9.41
2022-09-23T04:19:49.017Z,9.41
2022-09-23T04:22:17.307Z,9.14
2022-09-23T04:24:47.005Z,9.14
2022-09-23T04:27:15.392Z,8.93
2022-09-23T04:29:43.696Z,8.96
2022-09-23T04:32:12.042Z,8.59
2022-09-23T04:34:40.289Z,9.00
2022-09-23T04:37:08.617Z,8.45
2022-09-23T04:39:36.949Z,8.94
2022-09-23T04:42:07.368Z,9.19
2022-09-23T04:44:35.943Z,8.83
2022-09-23T04:47:04.430Z,8.83
2022-09-23T04:49:34.027Z,8.93
2022-09-23T04:52:02.841Z,9.15
2022-09-23T04:54:31.183Z,8.39
2022-09-23T04:56:59.558Z,8.75
2022-09-23T04:59:30.206Z,8.75
2022-09-23T05:01:58.384Z,9.41
2022-09-23T05:04:26.704Z,9.34
2022-09-23T05:06:55.953Z,9.09
2022-09-23T05:09:25.721Z,9.36
2022-09-23T05:11:54.159Z,8.91
2022-09-23T05:14:22.452Z,9.38
2022-09-23T05:16:52.303Z,9.24
2022-09-23T05:19:20.639Z,8.63
2022-09-23T05:21:48.952Z,8.85
2022-09-23T05:24:17.810Z,9.02
2022-09-23T05:26:46.108Z,9.42
2022-09-23T05:29:14.453Z,8.87
2022-09-23T05:31:42.736Z,9.52
2022-09-23T05:34:12.554Z,9.58
2022-09-23T05:36:40.876Z,9.70
2022-09-23T05:39:09.341Z,9.26
2022-09-23T05:41:37.825Z,9.34
2022-09-23T05:44:06.349Z,9.74
2022-09-23T05:46:35.200Z,9.16
2022-09-23T05:49:04.342Z,9.24
2022-09-23T05:51:35.444Z,10.14
2022-09-23T05:54:05.423Z,10.39
2022-09-23T05:56:35.011Z,10.94
2022-09-23T05:59:04.155Z,10.87
2022-09-23T06:01:34.288Z,11.09
2022-09-23T06:04:03.811Z,10.93
2022-09-23T06:06:35.537Z,10.88
2022-09-23T06:09:04.691Z,10.82
2022-09-23T06:11:34.155Z,10.80
2022-09-23T06:14:03.186Z,11.10
2022-09-23T06:16:33.087Z,10.82
2022-09-23T06:19:06.201Z,11.09
2022-09-23T06:21:38.460Z,11.00
2022-09-23T06:24:08.906Z,11.48
2022-09-23T06:26:37.922Z,11.84
2022-09-23T06:29:11.631Z,11.65
2022-09-23T06:31:42.135Z,12.12
2022-09-23T06:34:13.095Z,12.21
2022-09-23T06:36:45.459Z,12.11
2022-09-23T06:39:15.064Z,12.45
2022-09-23T06:41:43.811Z,12.48
2022-09-23T06:44:12.112Z,12.30
2022-09-23T06:46:40.538Z,12.24
2022-09-23T06:49:11.946Z,12.46
2022-09-23T06:51:40.277Z,11.74
2022-09-23T06:54:11.094Z,12.93
2022-09-23T06:56:40.051Z,12.71
2022-09-23T06:59:09.215Z,13.42
2022-09-23T07:01:38.014Z,12.32
2022-09-23T07:04:07.927Z,13.54
2022-09-23T07:06:37.278Z,13.94
2022-09-23T07:09:06.420Z,12.56
2022-09-23T07:11:36.305Z,12.69
2022-09-23T07:14:05.485Z,14.22
2022-09-23T07:16:34.165Z,14.45
2022-09-23T07:19:02.826Z,13.60
2022-09-23T07:21:31.347Z,14.05
2022-09-23T07:23:59.785Z,14.52
2022-09-23T07:26:29.557Z,14.02
2022-09-23T07:29:05.021Z,14.14
2022-09-23T07:31:39.245Z,14.62
2022-09-23T07:34:10.034Z,14.48
2022-09-23T07:36:41.036Z,15.14
2022-09-23T07:39:11.299Z,15.98
2022-09-23T07:41:41.837Z,15.94
2022-09-23T07:44:11.742Z,15.63
2022-09-23T07:46:40.206Z,15.66
2022-09-23T07:49:08.722Z,15.92
2022-09-23T07:51:38.238Z,16.78
2022-09-23T07:54:08.860Z,15.42
2022-09-23T07:56:37.954Z,15.08
2022-09-23T07:59:08.911Z,15.34
2022-09-23T08:01:41.262Z,17.13
2022-09-23T08:04:13.407Z,17.63
2022-09-23T08:06:43.332Z,17.07
2022-09-23T08:09:12.794Z,17.68
2022-09-23T08:11:42.018Z,17.54
2022-09-23T08:14:11.080Z,16.99
2022-09-23T08:16:40.919Z,17.52
2022-09-23T08:19:09.936Z,18.45
2022-09-23T08:21:39.217Z,18.56
2022-09-23T08:24:07.783Z,18.04
2022-09-23T08:26:36.548Z,17.43
2022-09-23T08:29:05.017Z,18.00
2022-09-23T08:31:33.769Z,18.96
2022-09-23T08:34:03.505Z,18.08
2022-09-23T08:36:32.629Z,18.81
2022-09-23T08:39:01.175Z,17.61
2022-09-23T08:41:37.490Z,18.43
2022-09-23T08:44:10.292Z,18.61
2022-09-23T08:46:42.387Z,17.67
2022-09-23T08:49:17.446Z,19.26
2022-09-23T08:51:47.972Z,19.11
2022-09-23T08:54:17.840Z,20.20
2022-09-23T08:56:48.609Z,19.15
2022-09-23T08:59:21.084Z,19.84
2022-09-23T09:01:51.864Z,19.31
2022-09-23T09:04:25.873Z,20.01
2022-09-23T09:07:12.314Z,20.21
2022-09-23T09:09:48.839Z,19.89
2022-09-23T09:12:18.806Z,19.53
2022-09-23T09:14:53.266Z,20.45
2022-09-23T09:17:34.392Z,20.78
2022-09-23T09:20:14.040Z,21.14
2022-09-23T09:22:49.237Z,20.48
2022-09-23T09:25:28.767Z,20.12
2022-09-23T09:28:00.920Z,20.45
2022-09-23T09:30:29.540Z,20.84
2022-09-23T09:33:01.411Z,21.71
2022-09-23T09:35:37.805Z,21.40
2022-09-23T09:38:06.873Z,21.65
2022-09-23T09:40:37.255Z,22.25
2022-09-23T09:43:05.756Z,20.42
2022-09-23T09:45:57.906Z,21.86
2022-09-23T09:48:32.427Z,22.35
2022-09-23T09:51:19.661Z,22.60
2022-09-23T09:53:51.911Z,22.13
2022-09-23T09:56:23.132Z,22.72
2022-09-23T09:58:53.499Z,22.01
2022-09-23T10:01:23.835Z,22.89
2022-09-23T10:03:56.965Z,22.26
2022-09-23T10:06:30.427Z,22.51
2022-09-23T10:09:14.821Z,23.03
2022-09-23T10:11:43.719Z,23.17
2022-09-23T10:14:14.367Z,22.39
2022-09-23T10:16:43.481Z,23.09
2022-09-23T10:19:21.399Z,22.85
2022-09-23T10:21:54.577Z,23.68
2022-09-23T10:24:25.899Z,22.95
2022-09-23T10:26:58.231Z,23.79
2022-09-23T10:29:31.255Z,23.47
2022-09-23T10:32:19.466Z,23.68
2022-09-23T10:34:50.651Z,23.90
2022-09-23T10:37:31.581Z,24.13
2022-09-23T10:40:18.255Z,24.18
2022-09-23T10:43:15.161Z,24.67
2022-09-23T10:46:04.308Z,23.59
2022-09-23T10:48:41.510Z,24.62
2022-09-23T10:51:15.829Z,24.95
2022-09-23T10:53:52.043Z,24.60
2022-09-23T10:56:26.778Z,24.46
2022-09-23T10:59:29.170Z,24.65
2022-09-23T11:02:03.380Z,24.82
2022-09-23T11:04:54.812Z,24.04
2022-09-23T11:07:28.525Z,24.39
2022-09-23T11:10:29.303Z,24.67
2022-09-23T11:13:10.781Z,23.91
2022-09-23T11:15:47.847Z,25.42
2022-09-23T11:18:29.259Z,25.65
2022-09-23T11:21:02.910Z,25.95
2022-09-23T11:23:49.610Z,25.48
2022-09-23T11:26:32.204Z,24.66
2022-09-23T11:29:34.362Z,24.21
2022-09-23T11:32:11.483Z,24.93
2022-09-23T11:34:54.869Z,24.66
2022-09-23T11:37:26.620Z,24.23
2022-09-23T11:40:01.190Z,24.29
2022-09-23T11:42:34.036Z,24.47
2022-09-23T11:45:07.373Z,25.75
2022-09-23T11:47:39.956Z,25.51
2022-09-23T11:50:17.839Z,24.62
2022-09-23T11:52:48.925Z,25.91
2022-09-23T11:55:23.053Z,26.17
2022-09-23T11:57:55.460Z,26.43
2022-09-23T12:00:25.018Z,26.69
2022-09-23T12:03:05.846Z,26.66
2022-09-23T12:05:38.114Z,25.74
2022-09-23T12:08:10.306Z,26.39
2022-09-23T12:10:43.948Z,24.73
2022-09-23T12:13:19.086Z,26.53
2022-09-23T12:15:59.878Z,27.19
2022-09-23T12:18:38.417Z,26.59
2022-09-23T12:21:39.141Z,26.85
2022-09-23T12:24:28.246Z,26.75
2022-09-23T12:26:59.025Z,27.05
2022-09-23T12:29:32.112Z,26.57
2022-09-23T12:32:01.225Z,27.20
2022-09-23T12:34:35.469Z,27.35
2022-09-23T12:37:04.190Z,26.42
2022-09-23T12:39:34.529Z,26.75
2022-09-23T12:42:03.105Z,27.10
2022-09-23T12:44:36.916Z,26.52
2022-09-23T12:47:38.729Z,26.83
2022-09-23T12:50:44.447Z,26.93
2022-09-23T12:53:51.882Z,26.85
2022-09-23T12:56:22.110Z,26.81
2022-09-23T12:59:14.675Z,26.82
2022-09-23T13:01:44.816Z,26.93
2022-09-23T13:04:45.955Z,26.66
2022-09-23T13:07:17.100Z,26.84
2022-09-23T13:09:48.762Z,27.05
2022-09-23T13:12:20.899Z,26.42
2022-09-23T13:14:51.484Z,26.10
2022-09-23T13:17:27.287Z,26.83
2022-09-23T13:20:03.669Z,26.97
2022-09-23T13:23:01.293Z,26.75
2022-09-23T13:25:32.557Z,26.41
2022-09-23T13:28:02.943Z,26.73
2022-09-23T13:30:31.068Z,27.07
2022-09-23T13:33:07.770Z,27.00
2022-09-23T13:35:38.348Z,27.45
2022-09-23T13:38:13.007Z,27.10
2022-09-23T13:40:42.510Z,27.24
2022-09-23T13:43:13.676Z,27.59
2022-09-23T13:45:43.604Z,27.03
2022-09-23T13:48:15.830Z,27.51
2022-09-23T13:50:46.319Z,27.59
2022-09-23T13:53:20.735Z,27.29
2022-09-23T13:55:52.337Z,26.92
2022-09-23T13:58:22.069Z,27.34
2022-09-23T14:00:51.191Z,26.92
2022-09-23T14:03:25.227Z,27.41
2022-09-23T14:05:54.384Z,27.24
2022-09-23T14:08:23.470Z,26.95
2022-09-23T14:10:52.943Z,27.32
2022-09-23T14:13:25.919Z,27.56
2022-09-23T14:15:56.128Z,27.61
2022-09-23T14:18:31.682Z,27.01
2022-09-23T14:21:00.321Z,27.40
2022-09-23T14:23:28.578Z,27.01
2022-09-23T14:25:57.736Z,27.51
2022-09-23T14:28:27.807Z,27.39
2022-09-23T14:30:57.775Z,26.73
2022-09-23T14:33:31.444Z,27.14
2022-09-23T14:36:06.558Z,26.66
2022-09-23T14:38:52.211Z,27.56
2022-09-23T14:41:23.971Z,26.31
2022-09-23T14:43:55.803Z,27.78
2022-09-23T14:46:25.552Z,27.33
2022-09-23T14:49:02.721Z,26.82
2022-09-23T14:51:34.137Z,27.29
2022-09-23T14:54:25.634Z,27.31
2022-09-23T14:56:55.239Z,26.86
2022-09-23T14:59:28.396Z,26.23
2022-09-23T15:01:57.486Z,26.65
2022-09-23T15:04:32.486Z,27.12
2022-09-23T15:07:06.631Z,26.60
2022-09-23T15:09:38.093Z,25.96
2022-09-23T15:12:08.243Z,26.44
2022-09-23T15:14:40.724Z,25.96
2022-09-23T15:17:21.364Z,26.15
2022-09-23T15:19:55.213Z,26.73
2022-09-23T15:22:23.839Z,26.63
2022-09-23T15:24:53.221Z,26.59
2022-09-23T15:27:29.683Z,26.30
2022-09-23T15:30:04.941Z,26.05
2022-09-23T15:32:33.697Z,25.68
2022-09-23T15:35:03.571Z,26.02
2022-09-23T15:37:36.202Z,25.85
2022-09-23T15:40:06.262Z,25.90
2022-09-23T15:42:34.619Z,25.29
2022-09-23T15:45:03.126Z,25.83
2022-09-23T15:47:32.792Z,25.90
2022-09-23T15:50:01.057Z,25.40
2022-09-23T15:52:30.782Z,25.87
2022-09-23T15:54:59.070Z,25.45
2022-09-23T15:57:27.362Z,25.59
2022-09-23T15:59:58.368Z,25.19
2022-09-23T16:02:26.956Z,25.37
2022-09-23T16:04:55.422Z,25.33
2022-09-23T16:07:24.291Z,24.72
2022-09-23T16:09:54.804Z,25.08
2022-09-23T16:12:23.280Z,25.25
2022-09-23T16:14:51.421Z,25.02
2022-09-23T16:17:19.694Z,24.87
2022-09-23T16:19:47.978Z,25.10
2022-09-23T16:22:16.687Z,25.15
2022-09-23T16:24:44.963Z,24.81
2022-09-23T16:27:17.932Z,24.83
2022-09-23T16:29:46.301Z,24.07
2022-09-23T16:32:16.907Z,24.63
2022-09-23T16:34:48.415Z,24.09
2022-09-23T16:37:18.334Z,23.66
2022-09-23T16:39:46.678Z,23.90
2022-09-23T16:42:16.339Z,23.94
2022-09-23T16:44:44.623Z,23.95
2022-09-23T16:47:12.886Z,23.52
2022-09-23T16:49:42.375Z,23.45
2022-09-23T16:52:12.859Z,23.50
2022-09-23T16:54:42.158Z,23.88
2022-09-23T16:57:13.175Z,23.66
2022-09-23T17:00:00.523Z,23.64
2022-09-23T17:02:46.463Z,23.45
2022-09-23T17:05:18.511Z,23.34
2022-09-23T17:07:46.819Z,23.20
2022-09-23T17:10:15.156Z,23.13
2022-09-23T17:12:44.568Z,22.95
2022-09-23T17:15:14.498Z,22.74
2022-09-23T17:17:42.795Z,22.62
2022-09-23T17:20:13.114Z,22.48
2022-09-23T17:22:42.295Z,22.44
2022-09-23T17:25:10.996Z,22.32
2022-09-23T17:27:39.282Z,22.15
2022-09-23T17:30:08.880Z,22.02
2022-09-23T17:32:38.508Z,21.93
2022-09-23T17:35:07.686Z,21.83
2022-09-23T17:37:35.975Z,21.74
2022-09-23T17:40:05.533Z,21.61
2022-09-23T17:42:34.487Z,21.52
2022-09-23T17:45:02.878Z,21.43
2022-09-23T17:47:33.643Z,21.31
2022-09-23T17:50:06.585Z,21.19
2022-09-23T17:52:35.706Z,21.10
2022-09-23T17:55:04.433Z,21.07
2022-09-23T17:57:33.198Z,21.04
2022-09-23T18:00:01.521Z,20.98
2022-09-23T18:02:29.938Z,20.71
2022-09-23T18:04:58.292Z,20.61
2022-09-23T18:07:27.996Z,20.61
2022-09-23T18:09:56.326Z,20.52
2022-09-23T18:12:24.632Z,20.62
2022-09-23T18:14:52.966Z,20.59
2022-09-23T18:17:21.251Z,20.58
2022-09-23T18:19:50.514Z,20.52
2022-09-23T18:22:18.790Z,20.51
2022-09-23T18:24:48.428Z,20.50
2022-09-23T18:27:16.710Z,20.41
2022-09-23T18:29:45.073Z,20.36
2022-09-23T18:32:14.407Z,20.22
2022-09-23T18:34:42.893Z,20.22
2022-09-23T18:37:15.663Z,20.11
2022-09-23T18:39:44.839Z,20.09
2022-09-23T18:42:14.727Z,20.03
2022-09-23T18:44:43.186Z,19.89
2022-09-23T18:47:31.520Z,19.78
2022-09-23T18:50:17.473Z,19.63
2022-09-23T18:52:45.874Z,19.56
2022-09-23T18:55:14.634Z,19.01
2022-09-23T18:57:45.075Z,19.32
2022-09-23T19:00:13.899Z,19.29
2022-09-23T19:02:43.101Z,19.22
2022-09-23T19:05:11.472Z,18.96
2022-09-23T19:07:39.803Z,18.81
2022-09-23T19:10:09.979Z,18.73
2022-09-23T19:12:38.342Z,18.87
2022-09-23T19:15:09.289Z,18.85
2022-09-23T19:17:37.565Z,18.77
2022-09-23T19:20:06.605Z,18.71
2022-09-23T19:22:35.001Z,18.66
2022-09-23T19:25:03.448Z,18.30
2022-09-23T19:27:31.790Z,18.45
2022-09-23T19:30:00.074Z,18.52
2022-09-23T19:32:30.065Z,18.67
2022-09-23T19:34:58.471Z,18.63
2022-09-23T19:37:26.864Z,18.58
2022-09-23T19:39:55.181Z,18.58
2022-09-23T19:42:24.985Z,18.55
2022-09-23T19:44:54.747Z,18.58
2022-09-23T19:47:23.055Z,18.46
2022-09-23T19:49:52.708Z,18.44
2022-09-23T19:52:20.958Z,18.35
2022-09-23T19:54:49.724Z,18.15
2022-09-23T19:57:18.023Z,18.34
2022-09-23T19:59:46.278Z,18.30
2022-09-23T20:02:14.717Z,18.03
2022-09-23T20:04:43.118Z,18.25
2022-09-23T20:07:12.776Z,18.17
2022-09-23T20:09:41.073Z,18.21
2022-09-23T20:12:09.605Z,18.18
2022-09-23T20:14:37.919Z,18.08
2022-09-23T20:17:07.639Z,17.94
2022-09-23T20:19:35.915Z,17.88
2022-09-23T20:22:21.900Z,17.55
2022-09-23T20:24:51.610Z,17.65
2022-09-23T20:27:18.961Z,17.47
2022-09-23T20:29:48.421Z,17.24
2022-09-23T20:32:16.897Z,17.61
2022-09-23T20:34:48.577Z,17.58
2022-09-23T20:37:18.022Z,17.58
2022-09-23T20:39:46.431Z,17.52
2022-09-23T20:42:17.144Z,17.04
2022-09-23T20:44:46.056Z,17.00
2022-09-23T20:47:15.463Z,16.89
2022-09-23T20:49:44.623Z,16.75
2022-09-23T20:52:14.129Z,17.13
2022-09-23T20:54:42.841Z,16.77
2022-09-23T20:57:14.106Z,16.70
2022-09-23T20:59:44.343Z,16.87
2022-09-23T21:02:12.677Z,17.00
2022-09-23T21:04:40.999Z,16.57
2022-09-23T21:07:09.238Z,16.34
2022-09-23T21:09:37.495Z,16.47
2022-09-23T21:12:06.154Z,16.79
2022-09-23T21:14:34.393Z,16.85
2022-09-23T21:17:04.083Z,17.13
2022-09-23T21:19:32.403Z,16.95
2022-09-23T21:22:02.032Z,16.28
2022-09-23T21:25:25.589Z,16.41
2022-09-23T21:27:18.556Z,16.42
2022-09-23T21:29:46.860Z,16.91
2022-09-23T21:32:16.539Z,16.81
2022-09-23T21:34:44.796Z,17.11
2022-09-23T21:37:13.038Z,17.23
2022-09-23T21:39:41.316Z,17.23
2022-09-23T21:42:09.662Z,16.75
2022-09-23T21:44:37.943Z,17.33
2022-09-23T21:47:06.481Z,17.44
2022-09-23T21:49:36.786Z,17.31
2022-09-23T21:52:05.076Z,17.36
2022-09-23T21:54:33.296Z,17.36
2022-09-23T21:57:01.776Z,17.35
2022-09-23T21:59:30.776Z,17.03
2022-09-23T22:01:59.252Z,16.75
2022-09-23T22:04:27.611Z,17.01
2022-09-23T22:06:57.363Z,17.31
2022-09-23T22:09:25.602Z,17.33
2022-09-23T22:12:11.530Z,16.28
2022-09-23T22:14:39.948Z,16.53
2022-09-23T22:17:10.605Z,17.25
2022-09-23T22:19:45.911Z,17.27
2022-09-23T22:22:18.876Z,16.68
2022-09-23T22:24:47.963Z,16.31
2022-09-23T22:27:18.997Z,16.22
2022-09-23T22:30:04.916Z,16.52
2022-09-23T22:32:43.326Z,17.13
2022-09-23T22:35:12.962Z,17.33
2022-09-23T22:37:42.579Z,17.47
2022-09-23T22:40:14.143Z,17.56
2022-09-23T22:42:43.086Z,17.57
2022-09-23T22:45:12.414Z,17.58
2022-09-23T22:47:42.036Z,17.56
2022-09-23T22:50:11.354Z,17.39
2022-09-23T22:52:40.155Z,17.19
2022-09-23T22:55:10.660Z,17.17
2022-09-23T22:57:38.983Z,17.10
2022-09-23T23:00:08.615Z,17.13
2022-09-23T23:02:36.941Z,17.04
2022-09-23T23:05:06.269Z,17.06
2022-09-23T23:07:36.237Z,16.65
2022-09-23T23:10:07.295Z,16.98
2022-09-23T23:12:37.020Z,16.57
2022-09-23T23:15:05.750Z,16.88
2022-09-23T23:17:34.740Z,16.44
2022-09-23T23:20:03.270Z,16.43
2022-09-23T23:22:31.570Z,16.93
2022-09-23T23:24:59.847Z,16.97
2022-09-23T23:27:28.200Z,16.95
2022-09-23T23:29:57.933Z,16.93
2022-09-23T23:32:26.267Z,16.97
2022-09-23T23:34:54.628Z,16.87
2022-09-23T23:37:23.104Z,17.03
2022-09-23T23:39:51.495Z,17.11
2022-09-23T23:42:20.171Z,17.10
2022-09-23T23:44:48.914Z,17.17
2022-09-23T23:47:18.636Z,17.26
2022-09-23T23:49:46.934Z,17.26
2022-09-23T23:52:15.306Z,17.22
2022-09-23T23:54:44.099Z,16.94
2022-09-23T23:57:12.478Z,16.76
2022-09-23T23:59:40.780Z,16.99
